createdAt,value
2022-11-02T00:00:37.477Z,27.77
2022-11-02T00:03:06.784Z,29.45
2022-11-02T00:05:36.194Z,24.02
2022-11-02T00:08:05.800Z,25.15
2022-11-02T00:10:35.238Z,32.33
2022-11-02T00:13:06.066Z,30.63
2022-11-02T00:15:37.269Z,29.15
2022-11-02T00:18:09.751Z,27.42
2022-11-02T00:20:39.659Z,27.13
2022-11-02T00:23:10.911Z,30.00
2022-11-02T00:25:42.468Z,26.77
2022-11-02T00:28:12.792Z,31.92
2022-11-02T00:30:41.934Z,28.27
2022-11-02T00:33:11.093Z,31.63
2022-11-02T00:35:40.780Z,30.05
2022-11-02T00:38:09.875Z,30.02
2022-11-02T00:40:38.814Z,27.90
2022-11-02T00:43:08.386Z,28.63
2022-11-02T00:45:41.302Z,28.45
2022-11-02T00:48:10.003Z,24.73
2022-11-02T00:50:39.085Z,28.83
2022-11-02T00:53:07.937Z,28.10
2022-11-02T00:55:37.020Z,29.27
2022-11-02T00:58:06.428Z,25.05
2022-11-02T01:00:35.438Z,30.52
2022-11-02T01:03:06.456Z,30.73
2022-11-02T01:05:35.459Z,30.80
2022-11-02T01:08:05.121Z,32.38
2022-11-02T01:10:34.978Z,30.33
2022-11-02T01:13:03.881Z,30.65
2022-11-02T01:15:33.737Z,27.25
2022-11-02T01:18:03.074Z,29.80
2022-11-02T01:20:33.762Z,30.38
2022-11-02T01:23:02.726Z,32.88
2022-11-02T01:25:31.586Z,33.28
2022-11-02T01:28:00.516Z,28.50
2022-11-02T01:30:29.443Z,28.67
2022-11-02T01:32:58.357Z,30.85
2022-11-02T01:35:28.611Z,27.80
2022-11-02T01:37:58.808Z,25.42
2022-11-02T01:40:27.662Z,30.95
2022-11-02T01:42:57.342Z,31.80
2022-11-02T01:45:26.215Z,40.30
2022-11-02T01:47:56.077Z,33.38
2022-11-02T01:50:28.649Z,35.15
2022-11-02T01:53:01.073Z,32.25
2022-11-02T01:55:33.962Z,31.60
2022-11-02T01:58:07.807Z,35.22
2022-11-02T02:00:38.816Z,29.83
2022-11-02T02:03:10.709Z,26.35
2022-11-02T02:05:43.722Z,34.38
2022-11-02T02:08:18.780Z,33.88
2022-11-02T02:13:19.442Z,30.67
2022-11-02T02:15:57.051Z,31.98
2022-11-02T02:18:34.164Z,28.95
2022-11-02T02:21:21.264Z,33.45
2022-11-02T02:24:22.058Z,34.35
2022-11-02T02:27:10.819Z,32.03
2022-11-02T02:29:53.653Z,37.30
2022-11-02T02:32:29.951Z,32.90
2022-11-02T02:35:08.828Z,35.60
2022-11-02T02:37:45.214Z,36.40
2022-11-02T02:40:18.787Z,30.33
2022-11-02T02:45:27.321Z,33.05
2022-11-02T02:48:02.358Z,32.70
2022-11-02T02:50:38.737Z,29.52
2022-11-02T02:53:09.661Z,26.27
2022-11-02T02:55:45.046Z,32.30
2022-11-02T02:58:19.840Z,28.67
2022-11-02T03:00:53.267Z,29.83
2022-11-02T03:03:27.375Z,25.25
2022-11-02T03:06:06.072Z,33.00
2022-11-02T03:08:39.709Z,30.75
2022-11-02T03:11:14.632Z,28.17
2022-11-02T03:14:00.173Z,27.13
2022-11-02T03:16:44.004Z,29.60
2022-11-02T03:19:24.857Z,31.95
2022-11-02T03:22:02.121Z,38.10
2022-11-02T03:24:37.346Z,25.83
2022-11-02T03:27:17.473Z,30.95
2022-11-02T03:29:54.777Z,28.65
2022-11-02T03:32:32.922Z,31.23
2022-11-02T03:35:06.907Z,29.33
2022-11-02T03:37:40.591Z,31.88
2022-11-02T03:40:17.442Z,30.10
2022-11-02T03:42:48.380Z,29.08
2022-11-02T03:45:20.439Z,38.40
2022-11-02T03:47:56.044Z,31.25
2022-11-02T03:50:27.828Z,25.15
2022-11-02T03:53:00.377Z,27.90
2022-11-02T03:55:34.593Z,33.80
2022-11-02T03:58:04.463Z,34.53
2022-11-02T04:00:36.216Z,34.97
2022-11-02T04:03:13.447Z,33.00
2022-11-02T04:05:46.264Z,32.38
2022-11-02T04:08:35.465Z,32.58
2022-11-02T04:11:25.788Z,32.40
2022-11-02T04:14:16.398Z,28.88
2022-11-02T04:17:11.057Z,25.38
2022-11-02T04:22:35.953Z,29.63
2022-11-02T04:25:19.507Z,30.60
2022-11-02T04:27:57.613Z,32.10
2022-11-02T04:30:32.282Z,30.38
2022-11-02T04:33:20.389Z,33.13
2022-11-02T04:36:00.863Z,46.10
2022-11-02T04:38:41.810Z,33.53
2022-11-02T04:41:45.568Z,46.63
2022-11-02T04:44:18.581Z,29.67
2022-11-02T04:46:58.814Z,30.10
2022-11-02T04:49:31.776Z,32.05
2022-11-02T04:52:02.840Z,36.90
2022-11-02T04:54:34.866Z,37.92
2022-11-02T04:57:06.768Z,31.60
2022-11-02T04:59:35.956Z,34.60
2022-11-02T05:02:05.488Z,36.83
2022-11-02T05:04:35.613Z,33.40
2022-11-02T05:07:07.803Z,34.05
2022-11-02T05:09:38.745Z,31.57
2022-11-02T05:12:08.303Z,29.00
2022-11-02T05:14:37.398Z,30.73
2022-11-02T05:17:06.489Z,35.40
2022-11-02T05:19:37.691Z,35.55
2022-11-02T05:22:09.735Z,36.80
2022-11-02T05:24:38.615Z,35.78
2022-11-02T05:27:11.849Z,42.47
2022-11-02T05:29:41.636Z,29.95
2022-11-02T05:32:11.175Z,35.42
2022-11-02T05:34:42.102Z,37.97
2022-11-02T05:37:14.483Z,40.83
2022-11-02T05:39:47.860Z,32.17
2022-11-02T05:42:20.759Z,34.75
2022-11-02T05:44:50.131Z,28.25
2022-11-02T05:47:19.233Z,32.45
2022-11-02T05:49:49.989Z,30.92
2022-11-02T05:54:54.704Z,43.53
2022-11-02T05:57:23.797Z,33.42
2022-11-02T05:59:52.788Z,35.05
2022-11-02T06:02:23.405Z,37.13
2022-11-02T06:04:54.492Z,32.42
2022-11-02T06:07:27.770Z,34.85
2022-11-02T06:09:57.020Z,38.92
2022-11-02T06:12:25.902Z,38.67
2022-11-02T06:14:55.241Z,40.75
2022-11-02T06:17:24.439Z,33.05
2022-11-02T06:19:53.348Z,34.90
2022-11-02T06:22:22.703Z,31.60
2022-11-02T06:24:53.438Z,30.90
2022-11-02T06:27:22.670Z,38.22
2022-11-02T06:29:52.108Z,38.30
2022-11-02T06:32:21.098Z,32.72
2022-11-02T06:34:50.237Z,29.65
2022-11-02T06:37:19.163Z,35.75
2022-11-02T06:39:48.268Z,34.83
2022-11-02T06:42:18.493Z,34.47
2022-11-02T06:44:47.482Z,38.90
2022-11-02T06:47:16.577Z,32.97
2022-11-02T06:49:45.675Z,40.30
2022-11-02T06:52:15.058Z,38.40
2022-11-02T06:54:44.116Z,39.20
2022-11-02T06:57:13.045Z,40.28
2022-11-02T06:59:43.214Z,38.00
2022-11-02T07:02:12.293Z,36.45
2022-11-02T07:04:44.264Z,38.08
2022-11-02T07:07:13.311Z,39.45
2022-11-02T07:09:42.547Z,36.95
2022-11-02T07:12:11.632Z,35.92
2022-11-02T07:14:40.907Z,35.40
2022-11-02T07:17:11.648Z,32.33
2022-11-02T07:19:40.564Z,36.40
2022-11-02T07:22:09.517Z,33.47
2022-11-02T07:24:40.730Z,31.75
2022-11-02T07:27:09.688Z,33.13
2022-11-02T07:29:38.567Z,30.65
2022-11-02T07:32:09.088Z,32.10
2022-11-02T07:34:39.409Z,28.42
2022-11-02T07:37:08.293Z,28.45
2022-11-02T07:39:37.239Z,28.90
2022-11-02T07:42:07.261Z,30.73
2022-11-02T07:44:41.977Z,31.55
2022-11-02T07:47:11.361Z,32.53
2022-11-02T07:49:42.314Z,34.38
2022-11-02T07:52:11.957Z,35.72
2022-11-02T07:54:44.569Z,34.95
2022-11-02T07:57:14.107Z,32.55
2022-11-02T07:59:43.791Z,33.80
2022-11-02T08:02:14.865Z,36.13
2022-11-02T08:04:46.503Z,32.05
2022-11-02T08:07:16.310Z,34.25
2022-11-02T08:09:46.013Z,43.08
2022-11-02T08:12:15.521Z,33.08
2022-11-02T08:14:44.720Z,37.08
2022-11-02T08:17:13.974Z,32.97
2022-11-02T08:19:43.337Z,43.03
2022-11-02T08:22:13.948Z,37.33
2022-11-02T08:24:43.333Z,40.05
2022-11-02T08:27:12.611Z,37.13
2022-11-02T08:29:44.377Z,36.50
2022-11-02T08:32:14.402Z,35.58
2022-11-02T08:34:45.670Z,40.08
2022-11-02T08:37:16.285Z,38.60
2022-11-02T08:39:45.315Z,38.38
2022-11-02T08:42:16.576Z,29.52
2022-11-02T08:44:45.664Z,36.97
2022-11-02T08:47:15.984Z,38.17
2022-11-02T08:49:47.095Z,31.40
2022-11-02T08:52:17.718Z,31.05
2022-11-02T08:54:47.028Z,32.17
2022-11-02T08:57:16.463Z,30.23
2022-11-02T08:59:45.637Z,31.77
2022-11-02T09:02:14.812Z,30.73
2022-11-02T09:04:44.228Z,33.53
2022-11-02T09:07:17.136Z,28.77
2022-11-02T09:09:46.293Z,31.63
2022-11-02T09:12:15.967Z,30.58
2022-11-02T09:14:45.351Z,25.42
2022-11-02T09:17:14.587Z,35.17
2022-11-02T09:19:44.026Z,32.40
2022-11-02T09:22:13.230Z,30.17
2022-11-02T09:24:43.593Z,27.30
2022-11-02T09:27:12.538Z,30.65
2022-11-02T09:29:41.552Z,37.25
2022-11-02T09:32:11.041Z,32.20
2022-11-02T09:34:40.366Z,33.90
2022-11-02T09:37:09.337Z,25.67
2022-11-02T09:39:38.745Z,32.88
2022-11-02T09:42:20.385Z,31.25
2022-11-02T09:44:52.516Z,27.58
2022-11-02T09:50:18.927Z,33.35
2022-11-02T09:52:58.811Z,30.75
2022-11-02T09:55:31.907Z,35.15
2022-11-02T09:58:07.486Z,32.92
2022-11-02T10:00:42.032Z,29.17
2022-11-02T10:03:21.920Z,29.52
2022-11-02T10:05:58.424Z,29.70
2022-11-02T10:08:39.546Z,29.13
2022-11-02T10:11:20.542Z,28.00
2022-11-02T10:13:57.059Z,27.27
2022-11-02T10:16:38.310Z,34.20
2022-11-02T10:19:14.872Z,29.60
2022-11-02T10:21:48.273Z,26.45
2022-11-02T10:24:25.825Z,27.55
2022-11-02T10:26:58.322Z,24.60
2022-11-02T10:29:41.442Z,24.43
2022-11-02T10:32:12.710Z,29.10
2022-11-02T10:34:42.942Z,23.17
2022-11-02T10:38:14.998Z,26.60
2022-11-02T10:41:08.799Z,23.02
2022-11-02T10:43:54.362Z,23.05
2022-11-02T10:46:42.527Z,25.55
2022-11-02T10:49:18.278Z,25.20
2022-11-02T10:51:47.579Z,21.23
2022-11-02T10:54:21.663Z,26.73
2022-11-02T10:57:09.211Z,25.55
2022-11-02T10:59:39.201Z,24.17
2022-11-02T11:02:17.099Z,26.38
2022-11-02T11:04:47.433Z,23.38
2022-11-02T11:07:30.436Z,22.00
2022-11-02T11:10:00.047Z,24.08
2022-11-02T11:12:34.716Z,22.58
2022-11-02T11:20:49.698Z,24.00
2022-11-02T11:23:21.740Z,22.52
2022-11-02T11:26:00.200Z,24.88
2022-11-02T11:28:32.084Z,21.20
2022-11-02T11:31:09.045Z,20.83
2022-11-02T11:33:49.639Z,23.58
2022-11-02T11:36:28.403Z,22.13
2022-11-02T11:39:01.463Z,26.48
2022-11-02T11:41:32.866Z,23.30
2022-11-02T11:44:03.733Z,23.30
2022-11-02T11:46:44.031Z,22.83
2022-11-02T11:49:36.033Z,20.42
2022-11-02T11:52:20.541Z,21.45
2022-11-02T11:55:00.969Z,24.77
2022-11-02T11:57:33.003Z,23.27
2022-11-02T12:00:05.275Z,24.65
2022-11-02T12:02:43.843Z,24.10
2022-11-02T12:05:16.707Z,19.58
2022-11-02T12:08:16.219Z,24.75
2022-11-02T12:11:03.836Z,22.05
2022-11-02T12:13:51.956Z,23.00
2022-11-02T12:16:31.167Z,25.77
2022-11-02T12:19:23.749Z,27.75
2022-11-02T12:22:04.074Z,23.50
2022-11-02T12:25:05.558Z,23.38
2022-11-02T12:27:43.677Z,23.67
2022-11-02T12:30:16.644Z,27.35
2022-11-02T12:32:59.885Z,25.83
2022-11-02T12:36:05.341Z,26.83
2022-11-02T12:38:52.943Z,25.95
2022-11-02T12:42:09.993Z,28.42
2022-11-02T12:44:50.205Z,29.33
2022-11-02T12:47:30.174Z,29.35
2022-11-02T12:50:10.087Z,27.85
2022-11-02T12:52:53.657Z,27.40
2022-11-02T12:55:38.177Z,29.98
2022-11-02T12:58:19.580Z,25.83
2022-11-02T13:00:57.028Z,31.00
2022-11-02T13:03:37.309Z,27.02
2022-11-02T13:06:14.531Z,23.80
2022-11-02T13:08:50.293Z,25.98
2022-11-02T13:11:26.168Z,27.40
2022-11-02T13:13:58.970Z,28.13
2022-11-02T13:16:40.862Z,32.15
2022-11-02T13:19:19.487Z,32.38
2022-11-02T13:21:54.110Z,29.55
2022-11-02T13:24:30.662Z,30.73
2022-11-02T13:29:59.287Z,34.70
2022-11-02T13:32:34.362Z,28.20
2022-11-02T13:35:14.169Z,28.02
2022-11-02T13:37:48.104Z,30.58
2022-11-02T13:40:23.069Z,29.25
2022-11-02T13:43:30.189Z,35.53
2022-11-02T13:46:13.075Z,29.42
2022-11-02T13:48:52.632Z,30.60
2022-11-02T13:51:29.132Z,29.23
2022-11-02T13:54:04.968Z,27.45
2022-11-02T13:56:37.676Z,30.27
2022-11-02T13:59:09.311Z,29.30
2022-11-02T14:01:42.607Z,29.13
2022-11-02T14:04:14.741Z,32.00
2022-11-02T14:06:51.214Z,31.33
2022-11-02T14:09:32.110Z,30.17
2022-11-02T14:12:27.374Z,27.77
2022-11-02T14:16:03.726Z,29.70
2022-11-02T14:18:34.664Z,29.65
2022-11-02T14:21:36.693Z,29.85
2022-11-02T14:24:48.383Z,28.85
2022-11-02T14:27:31.150Z,29.77
2022-11-02T14:30:00.682Z,31.10
2022-11-02T14:32:41.735Z,28.63
2022-11-02T14:35:46.985Z,33.33
2022-11-02T14:38:40.003Z,25.83
2022-11-02T14:41:32.199Z,27.67
2022-11-02T14:44:23.889Z,26.30
2022-11-02T14:46:57.677Z,27.58
2022-11-02T14:49:29.806Z,26.83
2022-11-02T14:52:04.676Z,27.42
2022-11-02T14:54:37.733Z,31.63
2022-11-02T14:57:16.495Z,26.88
2022-11-02T14:59:49.864Z,31.15
2022-11-02T15:02:24.818Z,25.35
2022-11-02T15:04:56.330Z,27.52
2022-11-02T15:07:34.872Z,31.23
2022-11-02T15:10:07.207Z,27.77
2022-11-02T15:12:41.280Z,31.33
2022-11-02T15:15:32.970Z,31.10
2022-11-02T15:18:33.706Z,29.50
2022-11-02T15:21:25.524Z,34.00
2022-11-02T15:24:15.505Z,31.10
2022-11-02T15:26:51.014Z,38.78
2022-11-02T15:29:36.556Z,33.25
2022-11-02T15:32:10.047Z,38.65
2022-11-02T15:34:43.830Z,35.65
2022-11-02T15:37:18.428Z,32.22
2022-11-02T15:39:53.548Z,30.42
2022-11-02T15:42:33.532Z,28.98
2022-11-02T15:45:49.430Z,29.15
2022-11-02T15:48:37.006Z,33.80
2022-11-02T15:51:20.661Z,32.05
2022-11-02T15:54:13.558Z,40.55
2022-11-02T15:57:02.758Z,40.53
2022-11-02T15:59:55.210Z,37.42
2022-11-02T16:02:27.977Z,34.38
2022-11-02T16:05:00.194Z,36.30
2022-11-02T16:07:38.287Z,40.70
2022-11-02T16:10:25.663Z,36.85
2022-11-02T16:13:00.444Z,35.78
2022-11-02T16:15:30.580Z,36.80
2022-11-02T16:17:59.751Z,34.15
2022-11-02T16:20:31.052Z,34.55
2022-11-02T16:23:02.092Z,30.58
2022-11-02T16:25:39.911Z,32.35
2022-11-02T16:28:20.396Z,24.83
2022-11-02T16:31:12.737Z,25.90
2022-11-02T16:33:49.573Z,27.70
2022-11-02T16:36:21.190Z,26.00
2022-11-02T16:38:59.591Z,25.33
2022-11-02T16:41:31.281Z,23.23
2022-11-02T16:44:03.808Z,24.67
2022-11-02T16:46:43.351Z,20.87
2022-11-02T16:49:18.721Z,20.80
2022-11-02T16:51:53.178Z,18.98
2022-11-02T16:54:41.292Z,20.23
2022-11-02T16:57:19.788Z,18.83
2022-11-02T16:59:54.810Z,17.98
2022-11-02T17:02:36.212Z,20.40
2022-11-02T17:05:07.761Z,15.88
2022-11-02T17:07:42.413Z,19.15
2022-11-02T17:10:22.224Z,14.70
2022-11-02T17:12:51.586Z,16.92
2022-11-02T17:15:25.180Z,18.20
2022-11-02T17:20:46.207Z,19.23
2022-11-02T17:23:33.894Z,13.32
2022-11-02T17:26:42.165Z,17.15
2022-11-02T17:29:32.289Z,18.20
2022-11-02T17:32:05.225Z,18.33
2022-11-02T17:34:35.781Z,14.48
2022-11-02T17:37:06.791Z,15.45
2022-11-02T17:39:36.244Z,14.20
2022-11-02T17:42:23.137Z,17.17
2022-11-02T17:44:52.650Z,15.52
2022-11-02T17:47:23.468Z,19.83
2022-11-02T17:49:52.684Z,20.27
2022-11-02T17:52:21.833Z,15.48
2022-11-02T17:54:51.285Z,17.60
2022-11-02T17:57:21.170Z,13.65
2022-11-02T17:59:51.746Z,17.13
2022-11-02T18:02:22.472Z,16.13
2022-11-02T18:04:51.709Z,16.50
2022-11-02T18:07:21.026Z,14.05
2022-11-02T18:09:49.953Z,14.48
2022-11-02T18:12:21.975Z,17.67
2022-11-02T18:14:51.766Z,18.98
2022-11-02T18:17:27.149Z,17.00
2022-11-02T18:19:58.045Z,21.23
2022-11-02T18:22:28.023Z,16.10
2022-11-02T18:25:04.779Z,15.45
2022-11-02T18:27:33.864Z,13.75
2022-11-02T18:30:03.241Z,16.83
2022-11-02T18:32:56.190Z,14.32
2022-11-02T18:35:26.561Z,17.85
2022-11-02T18:38:01.715Z,14.60
2022-11-02T18:40:42.968Z,18.20
2022-11-02T18:43:16.750Z,21.27
2022-11-02T18:48:17.145Z,19.17
2022-11-02T18:50:46.580Z,18.05
2022-11-02T18:56:31.957Z,18.30
2022-11-02T18:59:01.459Z,19.75
2022-11-02T19:01:37.979Z,18.73
2022-11-02T19:04:16.948Z,19.13
2022-11-02T19:07:13.838Z,27.40
2022-11-02T19:09:46.896Z,24.08
2022-11-02T19:12:20.310Z,22.13
2022-11-02T19:14:51.674Z,20.60
2022-11-02T19:17:20.793Z,23.67
2022-11-02T19:19:54.967Z,22.92
2022-11-02T19:22:28.861Z,21.17
2022-11-02T19:24:58.225Z,23.27
2022-11-02T19:27:27.756Z,23.42
2022-11-02T19:29:56.937Z,22.95
2022-11-02T19:32:29.165Z,22.15
2022-11-02T19:35:00.647Z,21.88
2022-11-02T19:37:34.302Z,22.15
2022-11-02T19:40:04.426Z,24.88
2022-11-02T19:42:33.661Z,22.02
2022-11-02T19:45:04.405Z,20.95
2022-11-02T19:47:34.068Z,19.33
2022-11-02T19:50:04.465Z,22.08
2022-11-02T19:52:41.495Z,22.83
2022-11-02T19:55:12.980Z,23.13
2022-11-02T19:57:43.346Z,20.50
2022-11-02T20:00:14.853Z,23.35
2022-11-02T20:02:48.838Z,18.38
2022-11-02T20:05:22.079Z,20.75
2022-11-02T20:07:55.244Z,17.98
2022-11-02T20:10:32.731Z,22.50
2022-11-02T20:13:07.363Z,18.83
2022-11-02T20:15:45.013Z,18.92
2022-11-02T20:18:19.448Z,19.50
2022-11-02T20:20:52.578Z,19.35
2022-11-02T20:23:45.845Z,19.42
2022-11-02T20:26:17.325Z,19.50
2022-11-02T20:28:53.155Z,20.67
2022-11-02T20:31:24.130Z,18.80
2022-11-02T20:33:57.116Z,17.27
2022-11-02T20:36:30.549Z,18.08
2022-11-02T20:39:04.674Z,16.00
2022-11-02T20:41:36.079Z,16.50
2022-11-02T20:46:41.451Z,19.60
2022-11-02T20:49:22.324Z,16.13
2022-11-02T20:52:03.836Z,15.48
2022-11-02T20:54:33.289Z,17.23
2022-11-02T20:57:08.695Z,18.05
2022-11-02T20:59:38.159Z,19.83
2022-11-02T21:02:08.486Z,16.23
2022-11-02T21:04:59.612Z,17.73
2022-11-02T21:07:30.138Z,15.60
2022-11-02T21:10:01.961Z,16.00
2022-11-02T21:12:50.550Z,17.48
2022-11-02T21:15:21.859Z,20.65
2022-11-02T21:17:53.409Z,17.13
2022-11-02T21:20:34.092Z,23.42
2022-11-02T21:23:06.475Z,16.55
2022-11-02T21:25:36.569Z,14.15
2022-11-02T21:28:06.101Z,14.90
2022-11-02T21:30:37.157Z,15.32
2022-11-02T21:33:15.835Z,15.85
2022-11-02T21:35:52.633Z,20.40
2022-11-02T21:38:26.982Z,14.57
2022-11-02T21:41:00.138Z,15.65
2022-11-02T21:43:29.385Z,13.80
2022-11-02T21:45:59.910Z,18.02
2022-11-02T21:48:39.228Z,17.17
2022-11-02T21:51:12.178Z,14.50
2022-11-02T21:53:44.032Z,14.82
2022-11-02T21:56:15.888Z,13.68
2022-11-02T21:58:46.511Z,18.08
2022-11-02T22:01:38.506Z,15.65
2022-11-02T22:04:08.311Z,15.73
2022-11-02T22:06:37.969Z,20.15
2022-11-02T22:09:09.775Z,15.13
2022-11-02T22:11:38.723Z,16.27
2022-11-02T22:14:08.122Z,17.05
2022-11-02T22:16:38.901Z,19.02
2022-11-02T22:19:09.565Z,15.90
2022-11-02T22:21:40.991Z,16.63
2022-11-02T22:24:13.461Z,19.48
2022-11-02T22:26:42.525Z,15.38
2022-11-02T22:29:12.256Z,17.92
2022-11-02T22:31:42.002Z,19.02
2022-11-02T22:34:13.343Z,22.15
2022-11-02T22:36:44.545Z,19.48
2022-11-02T22:39:15.928Z,18.35
2022-11-02T22:41:46.681Z,21.98
2022-11-02T22:44:17.514Z,17.52
2022-11-02T22:46:48.926Z,19.88
2022-11-02T22:49:19.949Z,23.02
2022-11-02T22:51:51.351Z,17.23
2022-11-02T22:54:21.826Z,18.85
2022-11-02T22:56:50.923Z,19.38
2022-11-02T22:59:20.951Z,17.50
2022-11-02T23:01:51.410Z,22.38
2022-11-02T23:04:20.746Z,21.77
2022-11-02T23:06:49.633Z,20.35
2022-11-02T23:09:18.546Z,18.27
2022-11-02T23:11:47.797Z,20.55
2022-11-02T23:14:21.265Z,19.92
2022-11-02T23:16:50.172Z,20.58
2022-11-02T23:19:30.993Z,17.92
2022-11-02T23:22:19.659Z,18.45
2022-11-02T23:25:07.998Z,26.80
2022-11-02T23:27:55.673Z,19.33
2022-11-02T23:30:42.317Z,27.25
2022-11-02T23:33:11.627Z,24.00
2022-11-02T23:35:58.258Z,20.08
2022-11-02T23:38:48.448Z,19.45
2022-11-02T23:41:18.244Z,21.38
2022-11-02T23:43:48.915Z,19.90
2022-11-02T23:46:18.913Z,22.98
2022-11-02T23:48:51.121Z,18.75
2022-11-02T23:51:40.537Z,20.02
2022-11-02T23:54:27.284Z,23.35
2022-11-02T23:56:56.681Z,22.60
2022-11-02T23:59:27.362Z,21.00
